createdAt,value
2023-11-26T00:00:41.459Z,0.90
2023-11-26T00:03:08.933Z,1.20
2023-11-26T00:05:36.239Z,1.45
2023-11-26T00:08:03.701Z,0.95
2023-11-26T00:10:30.908Z,1.55
2023-11-26T00:12:58.088Z,0.77
2023-11-26T00:15:25.249Z,1.25
2023-11-26T00:17:52.612Z,0.98
2023-11-26T00:20:19.965Z,1.20
2023-11-26T00:22:48.311Z,2.50
2023-11-26T00:25:15.512Z,1.63
2023-11-26T00:27:43.061Z,1.40
2023-11-26T00:30:11.235Z,1.35
2023-11-26T00:32:38.757Z,1.63
2023-11-26T00:35:07.242Z,1.33
2023-11-26T00:37:34.673Z,3.20
2023-11-26T00:40:01.942Z,0.98
2023-11-26T00:42:29.110Z,0.95
2023-11-26T00:44:59.061Z,1.85
2023-11-26T00:47:26.538Z,0.82
2023-11-26T00:49:55.815Z,0.80
2023-11-26T00:52:23.134Z,0.60
2023-11-26T00:54:50.251Z,1.27
2023-11-26T00:57:18.765Z,1.15
2023-11-26T00:59:45.856Z,1.30
2023-11-26T01:02:13.440Z,0.95
2023-11-26T01:04:40.682Z,2.47
2023-11-26T01:07:07.945Z,1.63
2023-11-26T01:09:35.584Z,1.38
2023-11-26T01:12:02.744Z,1.05
2023-11-26T01:14:29.972Z,0.93
2023-11-26T01:16:58.139Z,1.10
2023-11-26T01:19:25.414Z,2.47
2023-11-26T01:21:52.649Z,1.52
2023-11-26T01:24:19.923Z,1.15
2023-11-26T01:26:47.073Z,0.73
2023-11-26T01:29:14.329Z,1.00
2023-11-26T01:31:41.501Z,1.00
2023-11-26T01:34:09.311Z,0.80
2023-11-26T01:36:36.494Z,0.70
2023-11-26T01:39:04.086Z,0.75
2023-11-26T01:41:31.347Z,1.42
2023-11-26T01:43:58.641Z,1.10
2023-11-26T01:46:28.865Z,0.85
2023-11-26T01:48:57.073Z,1.15
2023-11-26T01:51:26.390Z,2.67
2023-11-26T01:53:53.812Z,1.52
2023-11-26T01:56:23.293Z,1.38
2023-11-26T01:58:50.603Z,1.05
2023-11-26T02:01:22.450Z,1.02
2023-11-26T02:03:50.457Z,1.10
2023-11-26T02:06:18.629Z,1.02
2023-11-26T02:08:47.009Z,1.33
2023-11-26T02:11:14.286Z,0.77
2023-11-26T02:13:48.980Z,0.73
2023-11-26T02:16:16.453Z,0.85
2023-11-26T02:18:43.757Z,1.80
2023-11-26T02:21:12.472Z,0.82
2023-11-26T02:23:40.174Z,1.00
2023-11-26T02:26:10.369Z,1.00
2023-11-26T02:28:41.875Z,0.50
2023-11-26T02:31:11.110Z,0.65
2023-11-26T02:33:54.002Z,0.90
2023-11-26T02:36:26.836Z,1.10
2023-11-26T02:38:55.378Z,1.30
2023-11-26T02:41:22.688Z,1.27
2023-11-26T02:43:50.122Z,0.90
2023-11-26T02:46:17.463Z,0.80
2023-11-26T02:48:44.627Z,0.57
2023-11-26T02:51:11.864Z,1.25
2023-11-26T02:53:39.044Z,1.98
2023-11-26T02:56:06.906Z,1.65
2023-11-26T02:58:34.536Z,1.45
2023-11-26T03:01:01.897Z,0.88
2023-11-26T03:03:29.109Z,0.88
2023-11-26T03:05:56.270Z,0.93
2023-11-26T03:08:29.827Z,1.90
2023-11-26T03:11:15.742Z,0.60
2023-11-26T03:13:43.030Z,1.13
2023-11-26T03:16:12.718Z,0.88
2023-11-26T03:18:40.104Z,0.93
2023-11-26T03:21:08.202Z,0.80
2023-11-26T03:23:35.388Z,0.70
2023-11-26T03:26:02.582Z,0.60
2023-11-26T03:28:29.865Z,1.05
2023-11-26T03:30:58.181Z,1.30
2023-11-26T03:33:27.770Z,1.25
2023-11-26T03:35:55.235Z,0.80
2023-11-26T03:38:22.462Z,0.80
2023-11-26T03:40:49.753Z,1.13
2023-11-26T03:43:17.012Z,1.13
2023-11-26T03:45:44.272Z,1.27
2023-11-26T03:48:11.475Z,0.88
2023-11-26T03:50:38.653Z,0.95
2023-11-26T03:53:05.947Z,1.00
2023-11-26T03:55:34.690Z,0.82
2023-11-26T03:58:02.021Z,0.82
2023-11-26T04:00:29.521Z,1.60
2023-11-26T04:02:56.800Z,1.48
2023-11-26T04:05:23.985Z,1.45
2023-11-26T04:07:51.170Z,1.08
2023-11-26T04:10:24.490Z,0.93
2023-11-26T04:13:00.159Z,1.33
2023-11-26T04:15:27.875Z,1.23
2023-11-26T04:17:55.065Z,1.05
2023-11-26T04:20:23.378Z,0.88
2023-11-26T04:22:50.588Z,1.48
2023-11-26T04:25:17.776Z,0.80
2023-11-26T04:27:44.908Z,1.33
2023-11-26T04:30:12.424Z,2.03
2023-11-26T04:32:39.761Z,0.75
2023-11-26T04:35:07.450Z,1.40
2023-11-26T04:37:35.387Z,0.82
2023-11-26T04:40:02.605Z,1.60
2023-11-26T04:42:29.891Z,1.88
2023-11-26T04:44:57.640Z,1.30
2023-11-26T04:47:25.019Z,1.38
2023-11-26T04:49:57.055Z,1.40
2023-11-26T04:52:24.183Z,1.45
2023-11-26T04:54:51.737Z,2.03
2023-11-26T04:57:18.903Z,0.60
2023-11-26T04:59:46.008Z,1.52
2023-11-26T05:02:15.445Z,1.08
2023-11-26T05:04:42.947Z,1.15
2023-11-26T05:07:10.087Z,1.30
2023-11-26T05:09:37.406Z,1.52
2023-11-26T05:12:06.288Z,0.77
2023-11-26T05:14:34.843Z,1.30
2023-11-26T05:17:01.988Z,1.55
2023-11-26T05:19:29.192Z,0.98
2023-11-26T05:21:56.322Z,1.15
2023-11-26T05:24:24.053Z,1.30
2023-11-26T05:26:51.207Z,1.08
2023-11-26T05:29:18.404Z,1.55
2023-11-26T05:31:45.537Z,1.27
2023-11-26T05:34:12.674Z,1.27
2023-11-26T05:36:42.752Z,1.08
2023-11-26T05:39:09.954Z,1.30
2023-11-26T05:41:37.109Z,0.60
2023-11-26T05:44:05.609Z,0.93
2023-11-26T05:46:32.798Z,1.60
2023-11-26T05:48:59.988Z,1.23
2023-11-26T05:51:27.381Z,1.15
2023-11-26T05:53:55.364Z,1.23
2023-11-26T05:56:24.547Z,1.58
2023-11-26T05:58:51.792Z,1.05
2023-11-26T06:01:25.893Z,1.85
2023-11-26T06:03:53.939Z,2.58
2023-11-26T06:06:21.409Z,3.22
2023-11-26T06:08:48.667Z,0.93
2023-11-26T06:11:15.780Z,0.88
2023-11-26T06:13:42.951Z,2.03
2023-11-26T06:16:11.562Z,1.75
2023-11-26T06:18:39.422Z,1.20
2023-11-26T06:21:06.686Z,2.33
2023-11-26T06:23:34.099Z,1.17
2023-11-26T06:26:01.375Z,1.95
2023-11-26T06:28:28.803Z,2.22
2023-11-26T06:30:55.944Z,1.83
2023-11-26T06:33:23.378Z,2.22
2023-11-26T06:35:50.565Z,2.55
2023-11-26T06:38:17.708Z,1.73
2023-11-26T06:40:44.944Z,1.73
2023-11-26T06:43:12.115Z,1.02
2023-11-26T06:45:39.327Z,1.58
2023-11-26T06:48:06.660Z,1.13
2023-11-26T06:50:37.153Z,1.48
2023-11-26T06:53:04.605Z,2.10
2023-11-26T06:55:31.836Z,1.40
2023-11-26T06:57:58.961Z,1.20
2023-11-26T07:00:27.375Z,2.55
2023-11-26T07:02:54.538Z,1.60
2023-11-26T07:05:21.925Z,2.83
2023-11-26T07:07:49.986Z,2.03
2023-11-26T07:10:19.084Z,1.60
2023-11-26T07:12:46.307Z,1.25
2023-11-26T07:15:13.634Z,2.25
2023-11-26T07:17:41.187Z,3.05
2023-11-26T07:20:11.317Z,2.10
2023-11-26T07:22:38.590Z,2.63
2023-11-26T07:25:06.403Z,2.25
2023-11-26T07:27:33.576Z,2.30
2023-11-26T07:30:00.654Z,4.28
2023-11-26T07:32:31.129Z,1.73
2023-11-26T07:34:58.376Z,1.35
2023-11-26T07:37:28.803Z,2.15
2023-11-26T07:39:56.462Z,2.22
2023-11-26T07:42:24.140Z,2.33
2023-11-26T07:44:51.563Z,3.40
2023-11-26T07:47:18.746Z,1.80
2023-11-26T07:49:46.390Z,1.00
2023-11-26T07:52:13.468Z,2.47
2023-11-26T07:54:40.640Z,1.33
2023-11-26T07:57:09.996Z,2.40
2023-11-26T07:59:37.338Z,2.60
2023-11-26T08:02:09.918Z,1.40
2023-11-26T08:04:38.969Z,1.95
2023-11-26T08:07:06.779Z,1.90
2023-11-26T08:09:36.390Z,2.08
2023-11-26T08:12:04.770Z,1.45
2023-11-26T08:14:31.892Z,2.65
2023-11-26T08:16:59.004Z,1.85
2023-11-26T08:19:26.936Z,2.50
2023-11-26T08:21:56.188Z,1.90
2023-11-26T08:24:25.394Z,4.90
2023-11-26T08:26:54.596Z,2.05
2023-11-26T08:29:22.896Z,1.77
2023-11-26T08:31:50.409Z,2.58
2023-11-26T08:34:18.415Z,1.70
2023-11-26T08:36:46.500Z,1.85
2023-11-26T08:39:21.058Z,2.05
2023-11-26T08:41:49.100Z,1.73
2023-11-26T08:44:16.240Z,1.98
2023-11-26T08:46:43.504Z,2.20
2023-11-26T08:49:11.169Z,3.42
2023-11-26T08:51:39.039Z,4.85
2023-11-26T08:54:06.338Z,4.10
2023-11-26T08:56:33.482Z,2.40
2023-11-26T08:59:00.903Z,2.42
2023-11-26T09:01:28.095Z,1.67
2023-11-26T09:03:55.347Z,1.35
2023-11-26T09:06:22.466Z,1.95
2023-11-26T09:08:51.786Z,2.30
2023-11-26T09:11:19.525Z,4.78
2023-11-26T09:13:52.514Z,2.15
2023-11-26T09:16:21.162Z,3.30
2023-11-26T09:18:48.542Z,1.83
2023-11-26T09:21:16.044Z,3.20
2023-11-26T09:23:46.267Z,2.90
2023-11-26T09:26:14.524Z,3.97
2023-11-26T09:28:41.704Z,2.22
2023-11-26T09:31:09.993Z,1.83
2023-11-26T09:33:38.270Z,2.65
2023-11-26T09:36:05.952Z,1.75
2023-11-26T09:38:33.181Z,2.45
2023-11-26T09:41:00.457Z,1.92
2023-11-26T09:43:32.465Z,1.83
2023-11-26T09:45:59.969Z,1.95
2023-11-26T09:48:27.703Z,2.95
2023-11-26T09:50:57.990Z,1.77
2023-11-26T09:53:25.321Z,5.68
2023-11-26T09:55:53.248Z,2.58
2023-11-26T09:58:20.648Z,1.73
2023-11-26T10:00:47.994Z,2.88
2023-11-26T10:03:15.509Z,1.73
2023-11-26T10:05:43.045Z,2.13
2023-11-26T10:08:29.652Z,1.05
2023-11-26T10:10:56.958Z,1.95
2023-11-26T10:13:37.038Z,1.98
2023-11-26T10:16:04.899Z,1.10
2023-11-26T10:18:43.192Z,1.55
2023-11-26T10:21:10.467Z,1.80
2023-11-26T10:23:38.794Z,1.38
2023-11-26T10:26:23.760Z,2.00
2023-11-26T10:29:03.276Z,1.88
2023-11-26T10:31:30.852Z,2.05
2023-11-26T10:34:15.869Z,2.17
2023-11-26T10:36:43.568Z,1.73
2023-11-26T10:39:12.788Z,2.08
2023-11-26T10:41:40.702Z,1.00
2023-11-26T10:44:12.185Z,3.50
2023-11-26T10:46:50.063Z,2.13
2023-11-26T10:49:33.845Z,1.25
2023-11-26T10:52:13.337Z,2.08
2023-11-26T10:54:59.552Z,2.58
2023-11-26T10:57:40.523Z,1.67
2023-11-26T11:00:15.638Z,2.58
2023-11-26T11:02:43.417Z,2.10
2023-11-26T11:05:10.808Z,1.23
2023-11-26T11:07:39.898Z,1.38
2023-11-26T11:10:23.477Z,1.73
2023-11-26T11:13:07.799Z,3.33
2023-11-26T11:15:40.836Z,1.83
2023-11-26T11:18:30.431Z,2.25
2023-11-26T11:21:11.349Z,3.35
2023-11-26T11:23:43.240Z,1.88
2023-11-26T11:26:12.727Z,2.42
2023-11-26T11:28:43.775Z,1.35
2023-11-26T11:31:12.711Z,2.75
2023-11-26T11:34:01.467Z,2.80
2023-11-26T11:36:48.346Z,1.48
2023-11-26T11:39:36.473Z,3.03
2023-11-26T11:42:06.631Z,2.58
2023-11-26T11:44:38.956Z,1.60
2023-11-26T11:47:07.307Z,2.20
2023-11-26T11:49:47.331Z,6.25
2023-11-26T11:52:15.839Z,2.33
2023-11-26T11:55:01.109Z,2.75
2023-11-26T11:57:29.540Z,1.67
2023-11-26T11:59:56.951Z,1.88
2023-11-26T12:02:27.398Z,1.45
2023-11-26T12:04:55.962Z,2.15
2023-11-26T12:07:32.329Z,2.20
2023-11-26T12:12:30.228Z,1.70
2023-11-26T12:14:57.465Z,2.13
2023-11-26T12:17:24.695Z,1.92
2023-11-26T12:19:51.945Z,2.15
2023-11-26T12:22:19.082Z,2.05
2023-11-26T12:24:46.344Z,2.30
2023-11-26T12:27:23.904Z,1.77
2023-11-26T12:29:51.366Z,2.70
2023-11-26T12:32:27.437Z,1.85
2023-11-26T12:34:56.989Z,2.00
2023-11-26T12:37:24.897Z,4.03
2023-11-26T12:39:52.701Z,2.92
2023-11-26T12:42:21.293Z,1.13
2023-11-26T12:44:48.491Z,0.95
2023-11-26T12:47:15.631Z,3.22
2023-11-26T12:49:42.796Z,5.15
2023-11-26T12:52:10.408Z,2.05
2023-11-26T12:54:38.788Z,3.00
2023-11-26T12:57:06.606Z,1.88
2023-11-26T12:59:47.717Z,1.98
2023-11-26T13:02:16.740Z,1.65
2023-11-26T13:04:44.121Z,1.58
2023-11-26T13:07:11.390Z,1.98
2023-11-26T13:09:51.866Z,1.85
2023-11-26T13:12:19.498Z,1.75
2023-11-26T13:14:47.326Z,1.83
2023-11-26T13:17:17.313Z,6.93
2023-11-26T13:19:44.596Z,1.10
2023-11-26T13:22:13.400Z,1.85
2023-11-26T13:24:40.709Z,1.10
2023-11-26T13:27:09.481Z,2.60
2023-11-26T13:29:36.843Z,4.63
2023-11-26T13:32:04.160Z,1.80
2023-11-26T13:34:31.416Z,1.92
2023-11-26T13:36:58.725Z,1.95
2023-11-26T13:39:26.087Z,3.00
2023-11-26T13:41:53.269Z,1.73
2023-11-26T13:44:21.275Z,2.88
2023-11-26T13:46:48.569Z,2.40
2023-11-26T13:49:18.444Z,1.42
2023-11-26T13:54:13.894Z,1.40
2023-11-26T13:56:42.957Z,1.55
2023-11-26T13:59:10.820Z,1.40
2023-11-26T14:01:38.121Z,1.17
2023-11-26T14:04:06.061Z,8.20
2023-11-26T14:06:33.401Z,1.90
2023-11-26T14:09:00.618Z,1.50
2023-11-26T14:11:28.736Z,1.38
2023-11-26T14:13:56.711Z,1.95
2023-11-26T14:16:23.931Z,1.88
2023-11-26T14:18:51.143Z,1.70
2023-11-26T14:21:18.578Z,1.33
2023-11-26T14:23:45.640Z,1.27
2023-11-26T14:26:13.142Z,1.33
2023-11-26T14:28:40.969Z,0.98
2023-11-26T14:33:37.391Z,3.17
2023-11-26T14:36:04.797Z,2.30
2023-11-26T14:38:31.993Z,1.70
2023-11-26T14:41:00.779Z,1.23
2023-11-26T14:43:27.913Z,1.65
2023-11-26T14:45:55.288Z,1.55
2023-11-26T14:48:23.927Z,1.55
2023-11-26T14:50:51.109Z,4.70
2023-11-26T14:53:18.420Z,2.58
2023-11-26T14:55:45.510Z,3.75
2023-11-26T14:58:12.730Z,5.05
2023-11-26T15:00:39.941Z,2.25
2023-11-26T15:03:07.268Z,3.50
2023-11-26T15:05:34.590Z,1.90
2023-11-26T15:08:01.735Z,1.55
2023-11-26T15:10:28.916Z,1.27
2023-11-26T15:12:57.587Z,1.25
2023-11-26T15:15:24.838Z,1.73
2023-11-26T15:17:52.709Z,3.63
2023-11-26T15:20:19.915Z,4.30
2023-11-26T15:22:47.028Z,1.92
2023-11-26T15:25:15.565Z,1.38
2023-11-26T15:27:43.126Z,2.95
2023-11-26T15:30:11.176Z,1.80
2023-11-26T15:32:41.248Z,2.95
2023-11-26T15:35:14.882Z,1.83
2023-11-26T15:37:42.262Z,1.90
2023-11-26T15:40:12.391Z,1.77
2023-11-26T15:42:42.944Z,1.98
2023-11-26T15:45:14.394Z,2.67
2023-11-26T15:47:43.120Z,1.85
2023-11-26T15:50:13.604Z,4.35
2023-11-26T15:52:40.933Z,2.38
2023-11-26T15:55:10.712Z,1.50
2023-11-26T15:57:38.354Z,2.80
2023-11-26T16:00:07.994Z,1.63
2023-11-26T16:02:41.292Z,2.22
2023-11-26T16:05:10.200Z,2.22
2023-11-26T16:07:38.619Z,3.13
2023-11-26T16:10:07.129Z,2.22
2023-11-26T16:12:34.325Z,3.10
2023-11-26T16:15:01.511Z,2.90
2023-11-26T16:17:32.397Z,5.68
2023-11-26T16:20:03.869Z,2.53
2023-11-26T16:22:34.716Z,5.00
2023-11-26T16:25:02.119Z,5.95
2023-11-26T16:27:29.235Z,1.95
2023-11-26T16:29:56.360Z,2.83
2023-11-26T16:32:23.651Z,4.93
2023-11-26T16:34:50.780Z,3.30
2023-11-26T16:37:19.267Z,3.35
2023-11-26T16:39:46.508Z,2.58
2023-11-26T16:42:13.852Z,5.82
2023-11-26T16:44:41.060Z,2.83
2023-11-26T16:47:08.217Z,2.28
2023-11-26T16:49:35.654Z,2.35
2023-11-26T16:52:02.919Z,3.05
2023-11-26T16:54:30.407Z,2.60
2023-11-26T16:56:57.608Z,4.20
2023-11-26T16:59:26.583Z,3.63
2023-11-26T17:01:53.801Z,4.93
2023-11-26T17:04:22.148Z,3.97
2023-11-26T17:06:49.446Z,7.90
2023-11-26T17:09:17.377Z,4.82
2023-11-26T17:11:44.466Z,3.05
2023-11-26T17:14:11.637Z,4.13
2023-11-26T17:16:39.457Z,3.25
2023-11-26T17:19:07.253Z,5.13
2023-11-26T17:21:38.540Z,4.35
2023-11-26T17:24:05.895Z,9.30
2023-11-26T17:26:33.053Z,10.13
2023-11-26T17:29:00.738Z,7.15
2023-11-26T17:31:28.096Z,8.45
2023-11-26T17:33:55.583Z,7.05
2023-11-26T17:36:22.966Z,4.55
2023-11-26T17:38:50.109Z,6.32
2023-11-26T17:41:17.274Z,5.43
2023-11-26T17:43:44.436Z,6.30
2023-11-26T17:46:12.567Z,10.13
2023-11-26T17:48:40.594Z,7.32
2023-11-26T17:51:07.835Z,10.07
2023-11-26T17:53:35.743Z,7.80
2023-11-26T17:56:03.055Z,6.88
2023-11-26T17:58:30.290Z,5.30
2023-11-26T18:00:57.681Z,6.55
2023-11-26T18:03:24.972Z,4.65
2023-11-26T18:05:52.676Z,5.70
2023-11-26T18:08:19.822Z,5.47
2023-11-26T18:10:47.482Z,14.02
2023-11-26T18:13:14.740Z,4.43
2023-11-26T18:15:42.087Z,6.57
2023-11-26T18:18:09.525Z,6.13
2023-11-26T18:20:36.625Z,3.35
2023-11-26T18:23:04.609Z,5.68
2023-11-26T18:25:32.051Z,4.00
2023-11-26T18:27:59.382Z,3.97
2023-11-26T18:30:26.543Z,4.63
2023-11-26T18:32:54.247Z,3.38
2023-11-26T18:35:21.694Z,4.00
2023-11-26T18:37:48.911Z,5.45
2023-11-26T18:40:16.470Z,2.55
2023-11-26T18:42:50.378Z,3.92
2023-11-26T18:45:18.798Z,3.08
2023-11-26T18:47:46.578Z,3.47
2023-11-26T18:50:13.927Z,5.07
2023-11-26T18:52:41.226Z,2.53
2023-11-26T18:55:09.153Z,3.35
2023-11-26T18:57:36.606Z,3.40
2023-11-26T19:00:07.420Z,2.15
2023-11-26T19:02:34.831Z,6.97
2023-11-26T19:05:02.060Z,3.15
2023-11-26T19:07:29.171Z,3.42
2023-11-26T19:09:56.361Z,1.95
2023-11-26T19:12:23.500Z,2.65
2023-11-26T19:14:50.709Z,2.55
2023-11-26T19:17:17.978Z,3.85
2023-11-26T19:19:45.199Z,2.83
2023-11-26T19:22:12.532Z,3.20
2023-11-26T19:24:39.826Z,4.65
2023-11-26T19:27:07.075Z,3.65
2023-11-26T19:29:35.496Z,2.25
2023-11-26T19:32:02.743Z,4.32
2023-11-26T19:34:30.098Z,5.07
2023-11-26T19:36:57.314Z,3.28
2023-11-26T19:39:24.450Z,3.42
2023-11-26T19:41:51.844Z,4.30
2023-11-26T19:44:19.652Z,4.38
2023-11-26T19:46:46.969Z,4.38
2023-11-26T19:49:14.255Z,4.72
2023-11-26T19:51:43.790Z,5.03
2023-11-26T19:54:11.902Z,9.05
2023-11-26T19:56:42.509Z,4.72
2023-11-26T19:59:09.591Z,2.75
2023-11-26T20:01:36.842Z,4.53
2023-11-26T20:04:04.945Z,3.65
2023-11-26T20:06:32.337Z,7.10
2023-11-26T20:09:48.788Z,4.07
2023-11-26T20:12:16.043Z,5.45
2023-11-26T20:14:44.877Z,6.53
2023-11-26T20:17:13.468Z,7.15
2023-11-26T20:19:40.666Z,4.60
2023-11-26T20:22:07.887Z,4.63
2023-11-26T20:24:37.245Z,4.82
2023-11-26T20:29:32.392Z,4.00
2023-11-26T20:32:00.228Z,6.03
2023-11-26T20:34:27.397Z,6.32
2023-11-26T20:36:54.730Z,5.68
2023-11-26T20:39:22.100Z,7.07
2023-11-26T20:41:49.220Z,6.30
2023-11-26T20:44:16.344Z,4.20
2023-11-26T20:46:43.584Z,6.90
2023-11-26T20:49:11.582Z,5.95
2023-11-26T20:51:38.787Z,8.70
2023-11-26T20:54:05.980Z,5.28
2023-11-26T20:56:33.109Z,5.35
2023-11-26T20:59:01.080Z,6.00
2023-11-26T21:01:28.910Z,6.07
2023-11-26T21:03:57.039Z,8.25
2023-11-26T21:06:25.047Z,7.03
2023-11-26T21:08:52.158Z,5.18
2023-11-26T21:11:19.284Z,5.30
2023-11-26T21:13:48.120Z,5.68
2023-11-26T21:16:15.875Z,5.65
2023-11-26T21:18:43.040Z,7.05
2023-11-26T21:21:10.128Z,4.32
2023-11-26T21:23:37.182Z,4.28
2023-11-26T21:26:04.488Z,6.65
2023-11-26T21:28:31.657Z,4.95
2023-11-26T21:30:58.801Z,5.15
2023-11-26T21:33:26.061Z,7.10
2023-11-26T21:35:53.368Z,4.78
2023-11-26T21:38:20.538Z,3.35
2023-11-26T21:40:57.350Z,3.90
2023-11-26T21:43:31.737Z,3.13
2023-11-26T21:45:58.896Z,4.43
2023-11-26T21:48:26.085Z,6.70
2023-11-26T21:50:53.187Z,3.42
2023-11-26T21:53:20.356Z,4.32
2023-11-26T21:55:47.610Z,4.15
2023-11-26T21:58:15.036Z,3.33
2023-11-26T22:00:42.673Z,5.85
2023-11-26T22:03:09.931Z,4.10
2023-11-26T22:05:37.094Z,4.32
2023-11-26T22:08:04.824Z,3.00
2023-11-26T22:10:31.914Z,3.67
2023-11-26T22:12:59.128Z,2.95
2023-11-26T22:15:26.318Z,5.88
2023-11-26T22:17:53.453Z,2.53
2023-11-26T22:20:20.578Z,2.47
2023-11-26T22:22:47.821Z,4.13
2023-11-26T22:25:15.247Z,7.00
2023-11-26T22:27:42.828Z,8.70
2023-11-26T22:30:12.878Z,5.53
2023-11-26T22:32:40.712Z,3.60
2023-11-26T22:35:09.546Z,4.38
2023-11-26T22:37:40.587Z,3.50
2023-11-26T22:40:08.302Z,4.50
2023-11-26T22:42:35.477Z,1.95
2023-11-26T22:45:02.608Z,3.08
2023-11-26T22:47:29.709Z,2.97
2023-11-26T22:49:56.867Z,2.75
2023-11-26T22:52:23.972Z,2.55
2023-11-26T22:54:51.158Z,35.17
2023-11-26T22:57:18.369Z,38.00
2023-11-26T22:59:45.506Z,11.10
2023-11-26T23:02:12.961Z,8.80
2023-11-26T23:04:41.208Z,1.85
2023-11-26T23:07:08.316Z,2.85
2023-11-26T23:09:35.462Z,4.25
2023-11-26T23:12:04.281Z,2.92
2023-11-26T23:14:31.362Z,4.18
2023-11-26T23:16:58.540Z,5.43
2023-11-26T23:19:25.704Z,2.05
2023-11-26T23:21:52.894Z,3.85
2023-11-26T23:24:20.024Z,5.97
2023-11-26T23:26:47.711Z,4.38
2023-11-26T23:29:14.796Z,5.18
2023-11-26T23:31:41.907Z,5.13
2023-11-26T23:34:09.171Z,5.47
2023-11-26T23:36:36.343Z,3.67
2023-11-26T23:39:03.537Z,3.97
2023-11-26T23:41:30.895Z,3.72
2023-11-26T23:43:58.062Z,3.80
2023-11-26T23:46:25.200Z,3.05
2023-11-26T23:48:52.353Z,3.03
2023-11-26T23:51:19.555Z,3.78
2023-11-26T23:53:46.806Z,3.85
2023-11-26T23:56:13.887Z,6.95
2023-11-26T23:58:41.095Z,4.53
